Time,TemperatureF,DewpointF,PressureIn,WindDirection,WindDirectionDegrees,WindSpeedMPH,WindSpeedGustMPH,Humidity,HourlyPrecipIn,Conditions,Clouds,dailyrainin,SoftwareType,DateUTC
2013-03-12 00:02:00,35.0,35.0,29.84,West,277,14.0,22.0,99,0.00,,,0.06,,2013-03-12 04:02:00,
2013-03-12 00:12:00,35.0,35.0,29.84,West,277,14.0,22.0,99,0.00,,,0.06,,2013-03-12 04:12:00,
2013-03-12 00:22:00,35.0,35.0,29.84,WNW,297,9.0,13.0,99,0.00,,,0.06,,2013-03-12 04:22:00,
2013-03-12 00:32:00,35.0,35.0,29.85,West,274,8.0,15.0,99,0.00,,,0.06,,2013-03-12 04:32:00,
2013-03-12 00:42:00,35.0,35.0,29.85,West,274,8.0,15.0,99,0.00,,,0.06,,2013-03-12 04:42:00,
2013-03-12 00:52:00,35.0,35.0,29.85,West,281,14.0,16.0,99,0.00,,,0.05,,2013-03-12 04:52:00,
2013-03-12 01:02:00,35.0,35.0,29.85,West,279,12.0,16.0,99,0.00,,,0.05,,2013-03-12 05:02:00,
2013-03-12 01:12:00,35.0,35.0,29.85,West,279,12.0,16.0,99,0.00,,,0.05,,2013-03-12 05:12:00,
2013-03-12 01:22:00,34.0,34.0,29.86,WNW,282,8.0,14.0,99,0.00,,,0.05,,2013-03-12 05:22:00,
2013-03-12 01:32:00,34.0,34.0,29.86,West,276,13.0,15.0,99,0.00,,,0.05,,2013-03-12 05:32:00,
2013-03-12 01:42:00,34.0,34.0,29.86,West,276,13.0,15.0,99,0.00,,,0.05,,2013-03-12 05:42:00,
2013-03-12 01:52:00,34.0,34.0,29.86,West,280,14.0,21.0,98,0.00,,,0.05,,2013-03-12 05:52:00,
2013-03-12 02:02:00,34.0,34.0,29.87,West,281,9.0,20.0,98,0.00,,,0.05,,2013-03-12 06:02:00,
2013-03-12 02:12:00,34.0,34.0,29.87,West,281,9.0,20.0,98,0.00,,,0.05,,2013-03-12 06:12:00,
2013-03-12 02:22:00,34.0,34.0,29.87,WNW,289,8.0,9.0,98,0.00,,,0.05,,2013-03-12 06:22:00,
2013-03-12 02:32:00,34.0,34.0,29.88,WNW,293,12.0,16.0,98,0.00,,,0.04,,2013-03-12 06:32:00,
2013-03-12 02:42:00,34.0,34.0,29.88,WNW,293,12.0,16.0,98,0.00,,,0.04,,2013-03-12 06:42:00,
2013-03-12 02:52:00,34.0,34.0,29.88,WNW,298,10.0,16.0,98,0.00,,,0.04,,2013-03-12 06:52:00,
2013-03-12 03:02:00,34.0,34.0,29.88,WNW,291,9.0,10.0,98,0.00,,,0.04,,2013-03-12 07:02:00,
2013-03-12 03:12:00,34.0,34.0,29.88,WNW,291,9.0,10.0,98,0.00,,,0.04,,2013-03-12 07:12:00,
2013-03-12 03:22:00,34.0,34.0,29.88,WNW,293,10.0,14.0,98,0.00,,,0.04,,2013-03-12 07:22:00,
2013-03-12 03:32:00,34.0,34.0,29.89,WNW,293,10.0,14.0,98,0.00,,,0.04,,2013-03-12 07:32:00,
2013-03-12 03:42:00,34.0,34.0,29.89,WNW,293,10.0,14.0,98,0.00,,,0.04,,2013-03-12 07:42:00,
2013-03-12 03:52:00,34.0,34.0,29.89,WNW,289,12.0,17.0,99,0.00,,,0.04,,2013-03-12 07:52:00,
2013-03-12 04:02:00,34.0,34.0,29.89,WNW,282,13.0,14.0,98,0.00,,,0.04,,2013-03-12 08:02:00,
2013-03-12 04:12:00,34.0,34.0,29.89,WNW,282,13.0,14.0,98,0.00,,,0.04,,2013-03-12 08:12:00,
2013-03-12 04:22:00,34.0,34.0,29.89,WNW,288,13.0,18.0,98,0.00,,,0.04,,2013-03-12 08:22:00,
2013-03-12 04:32:00,34.0,34.0,29.89,WNW,290,7.0,10.0,98,0.00,,,0.04,,2013-03-12 08:32:00,
2013-03-12 04:42:00,34.0,34.0,29.89,WNW,290,7.0,10.0,98,0.00,,,0.04,,2013-03-12 08:42:00,
2013-03-12 04:52:00,34.0,34.0,29.88,NW,304,13.0,22.0,98,0.00,,,0.04,,2013-03-12 08:52:00,
2013-03-12 05:03:00,33.0,32.0,29.89,WNW,288,10.0,21.0,98,0.00,,,0.04,,2013-03-12 09:03:00,
2013-03-12 05:12:00,33.0,32.0,29.89,WNW,288,10.0,21.0,98,0.00,,,0.04,,2013-03-12 09:12:00,
2013-03-12 05:22:00,33.0,32.0,29.89,WNW,292,13.0,16.0,98,0.00,,,0.04,,2013-03-12 09:22:00,
2013-03-12 05:32:00,33.0,32.0,29.89,WNW,293,10.0,13.0,98,0.00,,,0.04,,2013-03-12 09:32:00,
2013-03-12 05:42:00,33.0,32.0,29.89,WNW,293,10.0,13.0,98,0.00,,,0.04,,2013-03-12 09:42:00,
2013-03-12 05:52:00,33.0,32.0,29.90,WNW,300,8.0,9.0,98,0.00,,,0.04,,2013-03-12 09:52:00,
2013-03-12 06:02:00,33.0,32.0,29.90,WNW,288,9.0,16.0,97,0.00,,,0.04,,2013-03-12 10:02:00,
2013-03-12 06:12:00,33.0,32.0,29.90,WNW,288,9.0,16.0,97,0.00,,,0.04,,2013-03-12 10:12:00,
2013-03-12 06:22:00,33.0,32.0,29.90,WNW,283,10.0,17.0,96,0.00,,,0.04,,2013-03-12 10:22:00,
2013-03-12 06:32:00,33.0,32.0,29.91,NW,307,9.0,14.0,95,0.00,,,0.04,,2013-03-12 10:32:00,
2013-03-12 06:42:00,33.0,32.0,29.91,NW,307,9.0,14.0,95,0.00,,,0.04,,2013-03-12 10:42:00,
2013-03-12 06:52:00,33.0,32.0,29.91,West,269,6.0,7.0,96,0.00,,,0.04,,2013-03-12 10:52:00,
2013-03-12 07:02:00,33.0,32.0,29.91,WNW,292,13.0,14.0,96,0.00,,,0.04,,2013-03-12 11:02:00,
2013-03-12 07:12:00,33.0,32.0,29.91,WNW,292,13.0,14.0,96,0.00,,,0.04,,2013-03-12 11:12:00,
2013-03-12 07:22:00,33.0,32.0,29.91,West,278,13.0,20.0,96,0.00,,,0.04,,2013-03-12 11:22:00,
2013-03-12 07:32:00,33.0,32.0,29.92,WNW,287,14.0,18.0,95,0.00,,,0.04,,2013-03-12 11:32:00,
2013-03-12 07:42:00,33.0,32.0,29.92,WNW,287,14.0,18.0,95,0.00,,,0.04,,2013-03-12 11:42:00,
2013-03-12 07:52:00,32.0,30.0,29.92,WNW,285,8.0,12.0,94,0.00,,,0.04,,2013-03-12 11:52:00,
2013-03-12 08:02:00,32.0,30.0,29.93,WNW,297,12.0,14.0,94,0.00,,,0.04,,2013-03-12 12:02:00,
2013-03-12 08:12:00,32.0,30.0,29.93,WNW,297,12.0,14.0,94,0.00,,,0.04,,2013-03-12 12:12:00,
2013-03-12 08:22:00,32.0,30.0,29.93,WNW,291,15.0,21.0,94,0.00,,,0.04,,2013-03-12 12:22:00,
2013-03-12 08:32:00,32.0,30.0,29.94,WNW,290,9.0,17.0,94,0.00,,,0.04,,2013-03-12 12:32:00,
2013-03-12 08:42:00,32.0,30.0,29.94,WNW,290,9.0,17.0,94,0.00,,,0.04,,2013-03-12 12:42:00,
2013-03-12 08:52:00,32.0,30.0,29.95,WNW,295,12.0,15.0,93,0.00,,,0.04,,2013-03-12 12:52:00,
2013-03-12 09:02:00,32.0,30.0,29.95,WNW,299,8.0,13.0,93,0.00,,,0.04,,2013-03-12 13:02:00,
2013-03-12 09:12:00,32.0,30.0,29.95,WNW,299,8.0,13.0,93,0.00,,,0.04,,2013-03-12 13:12:00,
2013-03-12 09:22:00,32.0,30.0,29.96,WNW,286,13.0,14.0,91,0.00,,,0.04,,2013-03-12 13:22:00,
2013-03-12 09:32:00,32.0,30.0,29.96,NW,306,12.0,16.0,91,0.00,,,0.04,,2013-03-12 13:32:00,
2013-03-12 09:42:00,32.0,30.0,29.96,NW,306,12.0,16.0,91,0.00,,,0.04,,2013-03-12 13:42:00,
2013-03-12 09:52:00,32.0,29.0,29.96,WNW,299,12.0,17.0,90,0.00,,,0.03,,2013-03-12 13:52:00,
2013-03-12 10:02:00,32.0,29.0,29.96,WNW,303,9.0,13.0,90,0.00,,,0.02,,2013-03-12 14:02:00,
2013-03-12 10:12:00,32.0,29.0,29.96,WNW,303,9.0,13.0,90,0.00,,,0.02,,2013-03-12 14:12:00,
2013-03-12 10:22:00,32.0,29.0,29.95,NW,318,10.0,15.0,90,0.00,,,0.01,,2013-03-12 14:22:00,
2013-03-12 10:32:00,32.0,29.0,29.96,NW,322,8.0,13.0,90,0.00,,,0.01,,2013-03-12 14:32:00,
2013-03-12 10:42:00,32.0,29.0,29.96,NW,322,8.0,13.0,90,0.00,,,0.01,,2013-03-12 14:42:00,
2013-03-12 10:53:00,32.0,29.0,29.97,NW,305,9.0,9.0,90,0.00,,,0.01,,2013-03-12 14:53:00,
2013-03-12 11:02:00,33.0,30.0,29.98,West,280,12.0,17.0,90,0.00,,,0.01,,2013-03-12 15:02:00,
2013-03-12 11:12:00,33.0,30.0,29.98,West,280,12.0,17.0,90,0.00,,,0.01,,2013-03-12 15:12:00,
2013-03-12 11:22:00,33.0,30.0,29.98,WNW,282,9.0,17.0,90,0.00,,,0.01,,2013-03-12 15:22:00,
2013-03-12 11:32:00,34.0,31.0,29.98,West,277,12.0,18.0,88,0.00,,,0.01,,2013-03-12 15:32:00,
2013-03-12 11:42:00,34.0,31.0,29.98,West,277,12.0,18.0,88,0.00,,,0.01,,2013-03-12 15:42:00,
2013-03-12 11:52:00,35.0,31.0,29.98,West,281,10.0,13.0,85,0.00,,,0.01,,2013-03-12 15:52:00,
2013-03-12 12:02:00,35.0,31.0,29.98,WNW,301,10.0,14.0,84,0.00,,,0.00,,2013-03-12 16:02:00,
2013-03-12 12:12:00,35.0,31.0,29.98,WNW,301,10.0,14.0,84,0.00,,,0.00,,2013-03-12 16:12:00,
2013-03-12 12:22:00,37.0,32.0,29.99,West,280,13.0,17.0,82,0.00,,,0.00,,2013-03-12 16:22:00,
2013-03-12 12:32:00,37.0,31.0,29.99,West,270,10.0,12.0,80,0.00,,,0.00,,2013-03-12 16:32:00,
2013-03-12 12:42:00,37.0,31.0,29.99,West,270,10.0,12.0,80,0.00,,,0.00,,2013-03-12 16:42:00,
2013-03-12 12:52:00,37.0,31.0,29.98,West,265,7.0,9.0,80,0.00,,,0.00,,2013-03-12 16:52:00,
2013-03-12 13:02:00,38.0,32.0,29.98,WNW,283,9.0,12.0,78,0.00,,,0.00,,2013-03-12 17:02:00,
2013-03-12 13:12:00,38.0,32.0,29.98,WNW,283,9.0,12.0,78,0.00,,,0.00,,2013-03-12 17:12:00,
2013-03-12 13:33:00,39.0,32.0,29.98,WNW,285,14.0,18.0,75,0.00,,,0.00,,2013-03-12 17:33:00,
2013-03-12 13:43:00,39.0,32.0,29.98,WNW,285,14.0,18.0,75,0.00,,,0.00,,2013-03-12 17:43:00,
2013-03-12 13:53:00,40.0,33.0,29.98,WNW,282,13.0,18.0,75,0.00,,,0.00,,2013-03-12 17:53:00,
2013-03-12 14:02:00,40.0,32.0,29.98,WNW,299,12.0,15.0,72,0.00,,,0.00,,2013-03-12 18:02:00,
2013-03-12 14:12:00,40.0,31.0,29.97,WNW,285,15.0,17.0,71,0.00,,,0.00,,2013-03-12 18:12:00,
2013-03-12 14:22:00,40.0,31.0,29.97,WNW,285,15.0,17.0,71,0.00,,,0.00,,2013-03-12 18:22:00,
2013-03-12 14:33:00,41.0,32.0,29.97,WNW,296,16.0,22.0,69,0.00,,,0.00,,2013-03-12 18:33:00,
2013-03-12 14:42:00,41.0,32.0,29.97,WNW,296,16.0,22.0,69,0.00,,,0.00,,2013-03-12 18:42:00,
2013-03-12 14:53:00,41.0,31.0,29.97,WNW,299,14.0,26.0,67,0.00,,,0.00,,2013-03-12 18:53:00,
2013-03-12 15:03:00,40.0,30.0,29.97,WNW,301,14.0,24.0,67,0.00,,,0.00,,2013-03-12 19:03:00,
2013-03-12 15:13:00,40.0,30.0,29.97,WNW,301,14.0,24.0,67,0.00,,,0.00,,2013-03-12 19:13:00,
2013-03-12 15:22:00,41.0,31.0,29.97,WNW,288,16.0,17.0,66,0.00,,,0.00,,2013-03-12 19:22:00,
2013-03-12 15:33:00,41.0,31.0,29.97,WNW,300,14.0,18.0,68,0.00,,,0.00,,2013-03-12 19:33:00,
2013-03-12 15:43:00,41.0,31.0,29.97,WNW,300,14.0,18.0,68,0.00,,,0.00,,2013-03-12 19:43:00,
2013-03-12 15:52:00,40.0,30.0,29.97,WNW,300,20.0,25.0,68,0.00,,,0.00,,2013-03-12 19:52:00,
2013-03-12 16:02:00,39.0,30.0,29.97,West,275,15.0,21.0,69,0.00,,,0.00,,2013-03-12 20:02:00,
2013-03-12 16:12:00,39.0,30.0,29.97,West,275,15.0,21.0,69,0.00,,,0.00,,2013-03-12 20:12:00,
2013-03-12 16:22:00,40.0,32.0,29.97,West,270,13.0,23.0,72,0.00,,,0.00,,2013-03-12 20:22:00,
2013-03-12 16:32:00,39.0,31.0,29.98,WNW,291,17.0,24.0,73,0.00,,,0.00,,2013-03-12 20:32:00,
2013-03-12 16:42:00,39.0,31.0,29.98,WNW,291,17.0,24.0,73,0.00,,,0.00,,2013-03-12 20:42:00,
2013-03-12 16:53:00,39.0,31.0,29.97,WNW,298,15.0,18.0,73,0.00,,,0.00,,2013-03-12 20:53:00,
2013-03-12 17:02:00,39.0,31.0,29.97,WNW,301,12.0,18.0,73,0.00,,,0.00,,2013-03-12 21:02:00,
2013-03-12 17:12:00,39.0,31.0,29.97,WNW,301,12.0,18.0,73,0.00,,,0.00,,2013-03-12 21:12:00,
2013-03-12 17:22:00,40.0,32.0,29.97,WNW,287,9.0,13.0,74,0.00,,,0.00,,2013-03-12 21:22:00,
2013-03-12 17:32:00,40.0,32.0,29.97,West,281,9.0,14.0,73,0.00,,,0.00,,2013-03-12 21:32:00,
2013-03-12 17:43:00,40.0,32.0,29.97,West,281,9.0,14.0,73,0.00,,,0.00,,2013-03-12 21:43:00,
2013-03-12 17:52:00,40.0,32.0,29.97,WNW,290,9.0,13.0,72,0.00,,,0.00,,2013-03-12 21:52:00,
2013-03-12 18:02:00,40.0,32.0,29.97,WNW,298,13.0,17.0,72,0.00,,,0.00,,2013-03-12 22:02:00,
2013-03-12 18:12:00,40.0,32.0,29.97,WNW,298,13.0,17.0,72,0.00,,,0.00,,2013-03-12 22:12:00,
2013-03-12 18:22:00,40.0,32.0,29.96,West,276,12.0,14.0,73,0.00,,,0.00,,2013-03-12 22:22:00,
2013-03-12 18:33:00,40.0,32.0,29.96,WNW,295,8.0,13.0,72,0.00,,,0.00,,2013-03-12 22:33:00,
2013-03-12 18:42:00,40.0,32.0,29.96,WNW,295,8.0,13.0,72,0.00,,,0.00,,2013-03-12 22:42:00,
2013-03-12 18:52:00,40.0,32.0,29.96,WNW,284,8.0,17.0,72,0.00,,,0.00,,2013-03-12 22:52:00,
2013-03-12 19:02:00,40.0,32.0,29.96,WNW,290,10.0,14.0,73,0.00,,,0.00,,2013-03-12 23:02:00,
2013-03-12 19:12:00,40.0,32.0,29.96,WNW,290,10.0,14.0,73,0.00,,,0.00,,2013-03-12 23:12:00,
2013-03-12 19:22:00,40.0,33.0,29.97,WNW,297,13.0,28.0,76,0.00,,,0.00,,2013-03-12 23:22:00,
2013-03-12 19:34:00,37.0,35.0,29.98,West,281,8.0,18.0,92,0.00,,,0.00,,2013-03-12 23:34:00,
2013-03-12 19:43:00,37.0,35.0,29.98,West,281,8.0,18.0,92,0.00,,,0.00,,2013-03-12 23:43:00,
2013-03-12 19:52:00,36.0,35.0,29.98,WNW,282,9.0,12.0,97,0.00,,,0.00,,2013-03-12 23:52:00,
2013-03-12 20:02:00,35.0,35.0,29.99,WNW,290,13.0,20.0,99,0.01,,,0.01,,2013-03-13 00:02:00,
2013-03-12 20:12:00,35.0,35.0,29.99,WNW,290,13.0,20.0,99,0.01,,,0.01,,2013-03-13 00:12:00,
2013-03-12 20:22:00,35.0,35.0,29.99,WNW,287,9.0,14.0,99,0.01,,,0.01,,2013-03-13 00:22:00,
2013-03-12 20:33:00,34.0,34.0,30.00,WNW,303,12.0,12.0,99,0.01,,,0.01,,2013-03-13 00:33:00,
2013-03-12 20:42:00,34.0,34.0,30.00,WNW,303,12.0,12.0,99,0.01,,,0.01,,2013-03-13 00:42:00,
2013-03-12 20:52:00,34.0,34.0,30.00,WNW,302,13.0,16.0,99,0.01,,,0.01,,2013-03-13 00:52:00,
2013-03-12 21:02:00,34.0,33.0,30.01,WNW,291,10.0,15.0,97,0.00,,,0.01,,2013-03-13 01:02:00,
2013-03-12 21:12:00,34.0,33.0,30.01,WNW,291,10.0,15.0,97,0.00,,,0.01,,2013-03-13 01:12:00,
2013-03-12 21:22:00,34.0,33.0,30.01,West,278,8.0,10.0,97,0.00,,,0.01,,2013-03-13 01:22:00,
2013-03-12 21:32:00,34.0,33.0,30.01,WNW,289,7.0,12.0,97,0.00,,,0.01,,2013-03-13 01:32:00,
2013-03-12 21:42:00,34.0,33.0,30.01,WNW,289,7.0,12.0,97,0.00,,,0.01,,2013-03-13 01:42:00,
2013-03-12 21:52:00,34.0,34.0,30.01,WNW,294,7.0,9.0,98,0.00,,,0.01,,2013-03-13 01:52:00,
2013-03-12 22:02:00,33.0,32.0,30.01,WNW,296,7.0,7.0,98,0.00,,,0.01,,2013-03-13 02:02:00,
2013-03-12 22:12:00,33.0,32.0,30.01,WNW,296,7.0,7.0,98,0.00,,,0.01,,2013-03-13 02:12:00,
2013-03-12 22:22:00,33.0,32.0,30.01,WNW,301,8.0,12.0,97,0.00,,,0.01,,2013-03-13 02:22:00,
2013-03-12 22:32:00,34.0,33.0,30.01,WNW,293,6.0,9.0,96,0.00,,,0.01,,2013-03-13 02:32:00,
2013-03-12 22:42:00,34.0,33.0,30.01,WNW,293,6.0,9.0,96,0.00,,,0.01,,2013-03-13 02:42:00,
2013-03-12 22:52:00,34.0,33.0,30.01,WNW,296,10.0,13.0,96,0.00,,,0.01,,2013-03-13 02:52:00,
2013-03-12 23:02:00,34.0,33.0,30.01,WNW,293,10.0,15.0,96,0.00,,,0.01,,2013-03-13 03:02:00,
2013-03-12 23:12:00,34.0,33.0,30.01,WNW,293,10.0,15.0,96,0.00,,,0.01,,2013-03-13 03:12:00,
2013-03-12 23:22:00,34.0,33.0,30.02,WNW,285,14.0,20.0,97,0.00,,,0.01,,2013-03-13 03:22:00,
2013-03-12 23:32:00,32.0,32.0,30.02,WNW,294,14.0,21.0,98,0.00,,,0.01,,2013-03-13 03:32:00,
2013-03-12 23:42:00,32.0,32.0,30.02,WNW,294,14.0,21.0,98,0.00,,,0.01,,2013-03-13 03:42:00,
2013-03-12 23:52:00,32.0,32.0,30.02,WNW,297,12.0,20.0,98,0.00,,,0.01,,2013-03-13 03:52:00,